Portada
METAR-TAF:

METAR-TAF

Aeroports :

Harriman-and-West Airport

North Adams, Massachusetts, Estats Units d'Amèrica

latitud: 42-41-50N, longitud: 073-10-13W, altitud: 199 m

Observació

L'informe es va fer fa 20 minuts, a les 00:52 UTC
Vent 21 kt del Oest amb ràfegues de 29 kt
Temperatura -4°C
Humitat 33%
Pressió 1008 hPa
Visibilitat: 16.1 km
Cel cobert a una alçada de 5500 ft

METAR: KAQW 050052Z AUTO 27021G29KT 10SM OVC055 M04/M18 A2978 RMK AO2 PK WND 27032/0001 SLP092 T10391183

Hora: 20:12 (01:12 UTC)


TAF: manca

Observacions i pronòstics meteorològics de més de 4000 aeroports (METAR i TAF).

Les estacions disponibles són els punts grocs i vermells al mapa.

Posi el ratolí al punt desitjat per veure el nom de l'estació.

Feu clic per veure les observacions i els pronòstics meteorològics.

Per canviar el mapa: feu clic els botons verds amb una creu de color negre per apropar; al botó verd amb un guió per allunyar la imatge; o en les fletxes verdes per a mapes adjacents.


METAR-TAF: